หน้าหลัก
METAR-TAF:

METAR-TAF

ท่าอากาศยาน :

แท่นขุดเจาะน้ำมัน

Sleipner, นอร์เวย์

ละติจูด: 58-22-00N, ลองจิจูด: 001-54-25E, ความสูง: 50 ม.

การสังเกตสภาพอากาศปัจจุบัน

รายงานได้ทำขึ้นเมื่อ 11 นาทีที่แล้ว ณ เวลา 02:20 UTC
ลม 13 นอตจากใต้
อุณหภูมิ 15°C
ความชื้น 94%
ความกดอากาศ 1018 hPa
ทัศนวิสัย: 7000 ม.

METAR: ENSL 190220Z AUTO 18013KT 7000 OVC041/// 15/14 Q1018 W13/S3

เวลา: 04:31 (02:31 UTC)


TAF: หายไป

สังเกตการณ์สภาพอากาศและพยากรณ์อากาศของสนามบินมากกว่า 4000 แห่ง (รายงาน METAR และ TAF).

สถานีที่ดูได้จะแสดงไว้ด้วยจุดสีเหลืองและสีแดงบนแผนที่.

เลื่อนเมาส์ไปเหนือจุดเพื่อดูชื่อสถานี.

แล้วคลิกเพื่อดูสังเกตการณ์และการพยากรณ์สภาพอากาศ.

ในการเปลี่ยนแผนที่: คลิกที่ปุ่มสีเขียวที่มีกากบาทสีดำเพื่อซูมเข้า; ที่ปุ่มสีเขียวที่มีขีดเพื่อซูมออก; หรือที่ลูกศรสีเขียวเพื่อไปยังแผนที่ที่อยู่ติดกัน.


METAR-TAF: